sensor_id;sensor_type;location;lat;lon;timestamp;P1;durP1;ratioP1;P2;durP2;ratioP2
17858;SDS011;35426;30.698;104.050;2023-11-21T00:00:18;273.10;;;121.00;;
17858;SDS011;35426;30.698;104.050;2023-11-21T00:02:55;272.63;;;121.90;;
17858;SDS011;35426;30.698;104.050;2023-11-21T00:05:31;276.67;;;119.20;;
17858;SDS011;35426;30.698;104.050;2023-11-21T00:08:05;283.80;;;122.10;;
17858;SDS011;35426;30.698;104.050;2023-11-21T00:10:39;277.00;;;120.67;;
17858;SDS011;35426;30.698;104.050;2023-11-21T00:13:15;273.90;;;118.67;;
17858;SDS011;35426;30.698;104.050;2023-11-21T00:15:49;281.20;;;121.23;;
17858;SDS011;35426;30.698;104.050;2023-11-21T00:18:24;271.67;;;117.67;;
17858;SDS011;35426;30.698;104.050;2023-11-21T00:21:00;275.97;;;118.93;;
17858;SDS011;35426;30.698;104.050;2023-11-21T00:23:36;271.00;;;119.27;;
17858;SDS011;35426;30.698;104.050;2023-11-21T00:26:10;271.57;;;121.67;;
17858;SDS011;35426;30.698;104.050;2023-11-21T00:28:51;270.40;;;121.73;;
17858;SDS011;35426;30.698;104.050;2023-11-21T00:31:24;279.93;;;120.20;;
17858;SDS011;35426;30.698;104.050;2023-11-21T00:33:59;268.37;;;119.27;;
17858;SDS011;35426;30.698;104.050;2023-11-21T00:36:36;266.97;;;121.10;;
17858;SDS011;35426;30.698;104.050;2023-11-21T00:39:11;258.47;;;118.10;;
17858;SDS011;35426;30.698;104.050;2023-11-21T00:41:44;268.27;;;115.60;;
17858;SDS011;35426;30.698;104.050;2023-11-21T00:44:18;254.43;;;113.43;;
17858;SDS011;35426;30.698;104.050;2023-11-21T00:46:53;275.80;;;117.63;;
17858;SDS011;35426;30.698;104.050;2023-11-21T00:49:28;253.93;;;116.00;;
17858;SDS011;35426;30.698;104.050;2023-11-21T00:52:04;248.47;;;114.13;;
17858;SDS011;35426;30.698;104.050;2023-11-21T00:54:39;268.60;;;116.70;;
17858;SDS011;35426;30.698;104.050;2023-11-21T00:57:14;250.10;;;117.80;;
17858;SDS011;35426;30.698;104.050;2023-11-21T00:59:50;256.97;;;114.03;;
17858;SDS011;35426;30.698;104.050;2023-11-21T01:02:24;246.43;;;114.40;;
17858;SDS011;35426;30.698;104.050;2023-11-21T01:04:58;250.20;;;115.37;;
17858;SDS011;35426;30.698;104.050;2023-11-21T01:07:36;264.70;;;117.40;;
17858;SDS011;35426;30.698;104.050;2023-11-21T01:10:09;263.50;;;118.10;;
17858;SDS011;35426;30.698;104.050;2023-11-21T01:12:43;255.10;;;115.90;;
17858;SDS011;35426;30.698;104.050;2023-11-21T01:15:19;262.50;;;117.43;;
17858;SDS011;35426;30.698;104.050;2023-11-21T01:17:53;274.13;;;120.10;;
17858;SDS011;35426;30.698;104.050;2023-11-21T01:20:29;263.47;;;118.20;;
17858;SDS011;35426;30.698;104.050;2023-11-21T01:23:05;271.93;;;118.00;;
17858;SDS011;35426;30.698;104.050;2023-11-21T01:25:40;272.17;;;120.37;;
17858;SDS011;35426;30.698;104.050;2023-11-21T01:28:13;280.77;;;122.43;;
17858;SDS011;35426;30.698;104.050;2023-11-21T01:30:48;280.63;;;120.43;;
17858;SDS011;35426;30.698;104.050;2023-11-21T01:33:21;295.63;;;124.03;;
17858;SDS011;35426;30.698;104.050;2023-11-21T01:35:57;275.20;;;120.30;;
17858;SDS011;35426;30.698;104.050;2023-11-21T01:38:34;270.83;;;120.70;;
17858;SDS011;35426;30.698;104.050;2023-11-21T01:41:09;283.17;;;123.67;;
17858;SDS011;35426;30.698;104.050;2023-11-21T01:43:43;283.07;;;122.63;;
17858;SDS011;35426;30.698;104.050;2023-11-21T01:46:17;279.77;;;123.17;;
17858;SDS011;35426;30.698;104.050;2023-11-21T01:48:52;285.77;;;122.43;;
17858;SDS011;35426;30.698;104.050;2023-11-21T01:51:27;286.87;;;124.73;;
17858;SDS011;35426;30.698;104.050;2023-11-21T01:54:04;293.93;;;125.63;;
17858;SDS011;35426;30.698;104.050;2023-11-21T01:56:45;290.27;;;123.60;;
17858;SDS011;35426;30.698;104.050;2023-11-21T01:59:22;286.63;;;122.50;;
17858;SDS011;35426;30.698;104.050;2023-11-21T02:01:58;283.17;;;122.77;;
17858;SDS011;35426;30.698;104.050;2023-11-21T02:04:34;285.83;;;120.33;;
17858;SDS011;35426;30.698;104.050;2023-11-21T02:07:08;286.33;;;121.90;;
17858;SDS011;35426;30.698;104.050;2023-11-21T02:09:49;276.00;;;118.43;;
17858;SDS011;35426;30.698;104.050;2023-11-21T02:12:24;270.50;;;118.73;;
17858;SDS011;35426;30.698;104.050;2023-11-21T02:14:59;285.37;;;119.27;;
17858;SDS011;35426;30.698;104.050;2023-11-21T02:17:38;278.03;;;114.40;;
17858;SDS011;35426;30.698;104.050;2023-11-21T02:20:13;272.70;;;115.47;;
17858;SDS011;35426;30.698;104.050;2023-11-21T02:22:56;262.30;;;114.00;;
17858;SDS011;35426;30.698;104.050;2023-11-21T02:25:31;258.40;;;113.70;;
17858;SDS011;35426;30.698;104.050;2023-11-21T02:28:07;243.23;;;109.63;;
17858;SDS011;35426;30.698;104.050;2023-11-21T02:30:44;277.93;;;113.53;;
17858;SDS011;35426;30.698;104.050;2023-11-21T02:33:25;269.97;;;109.97;;
17858;SDS011;35426;30.698;104.050;2023-11-21T02:35:59;273.70;;;114.60;;
17858;SDS011;35426;30.698;104.050;2023-11-21T02:38:35;273.63;;;112.13;;
17858;SDS011;35426;30.698;104.050;2023-11-21T02:41:09;273.17;;;116.07;;
17858;SDS011;35426;30.698;104.050;2023-11-21T02:43:44;269.30;;;114.93;;
17858;SDS011;35426;30.698;104.050;2023-11-21T02:46:18;274.20;;;115.13;;
17858;SDS011;35426;30.698;104.050;2023-11-21T02:48:52;266.43;;;114.13;;
17858;SDS011;35426;30.698;104.050;2023-11-21T02:51:28;267.57;;;113.03;;
17858;SDS011;35426;30.698;104.050;2023-11-21T02:54:04;261.83;;;112.73;;
17858;SDS011;35426;30.698;104.050;2023-11-21T02:56:39;260.37;;;111.13;;
17858;SDS011;35426;30.698;104.050;2023-11-21T02:59:14;271.57;;;112.53;;
17858;SDS011;35426;30.698;104.050;2023-11-21T03:01:48;271.87;;;114.07;;
17858;SDS011;35426;30.698;104.050;2023-11-21T03:04:23;264.10;;;114.43;;
17858;SDS011;35426;30.698;104.050;2023-11-21T03:06:58;276.80;;;115.83;;
17858;SDS011;35426;30.698;104.050;2023-11-21T03:09:36;273.87;;;116.23;;
17858;SDS011;35426;30.698;104.050;2023-11-21T03:12:10;259.67;;;115.50;;
17858;SDS011;35426;30.698;104.050;2023-11-21T03:14:43;261.00;;;113.83;;
17858;SDS011;35426;30.698;104.050;2023-11-21T03:17:17;271.80;;;114.50;;
17858;SDS011;35426;30.698;104.050;2023-11-21T03:19:52;262.07;;;112.73;;
17858;SDS011;35426;30.698;104.050;2023-11-21T03:22:26;273.03;;;116.37;;
17858;SDS011;35426;30.698;104.050;2023-11-21T03:25:03;252.23;;;110.17;;
17858;SDS011;35426;30.698;104.050;2023-11-21T03:27:40;281.60;;;115.67;;
17858;SDS011;35426;30.698;104.050;2023-11-21T03:30:14;274.17;;;112.10;;
17858;SDS011;35426;30.698;104.050;2023-11-21T03:32:49;260.93;;;112.53;;
17858;SDS011;35426;30.698;104.050;2023-11-21T03:35:23;263.17;;;112.60;;
17858;SDS011;35426;30.698;104.050;2023-11-21T03:38:00;259.63;;;112.83;;
17858;SDS011;35426;30.698;104.050;2023-11-21T03:40:37;253.53;;;107.80;;
17858;SDS011;35426;30.698;104.050;2023-11-21T03:43:11;250.27;;;110.97;;
17858;SDS011;35426;30.698;104.050;2023-11-21T03:45:47;270.97;;;113.30;;
17858;SDS011;35426;30.698;104.050;2023-11-21T03:48:21;258.00;;;114.17;;
17858;SDS011;35426;30.698;104.050;2023-11-21T03:50:54;259.73;;;113.73;;
17858;SDS011;35426;30.698;104.050;2023-11-21T03:53:28;264.37;;;116.23;;
17858;SDS011;35426;30.698;104.050;2023-11-21T03:56:05;268.03;;;110.87;;
17858;SDS011;35426;30.698;104.050;2023-11-21T03:58:39;258.17;;;112.87;;
17858;SDS011;35426;30.698;104.050;2023-11-21T04:01:18;261.43;;;111.00;;
17858;SDS011;35426;30.698;104.050;2023-11-21T04:03:53;266.50;;;113.60;;
17858;SDS011;35426;30.698;104.050;2023-11-21T04:06:27;262.60;;;109.90;;
17858;SDS011;35426;30.698;104.050;2023-11-21T04:09:02;267.53;;;115.50;;
17858;SDS011;35426;30.698;104.050;2023-11-21T04:11:39;266.13;;;114.43;;
17858;SDS011;35426;30.698;104.050;2023-11-21T04:14:15;263.57;;;111.27;;
17858;SDS011;35426;30.698;104.050;2023-11-21T04:16:50;257.77;;;111.83;;
17858;SDS011;35426;30.698;104.050;2023-11-21T04:19:24;267.27;;;112.97;;
17858;SDS011;35426;30.698;104.050;2023-11-21T04:21:58;268.40;;;112.10;;
17858;SDS011;35426;30.698;104.050;2023-11-21T04:24:32;262.17;;;108.20;;
17858;SDS011;35426;30.698;104.050;2023-11-21T04:27:08;265.97;;;108.97;;
17858;SDS011;35426;30.698;104.050;2023-11-21T04:29:42;257.43;;;108.70;;
17858;SDS011;35426;30.698;104.050;2023-11-21T04:32:16;241.93;;;105.43;;
17858;SDS011;35426;30.698;104.050;2023-11-21T04:34:50;249.10;;;106.33;;
17858;SDS011;35426;30.698;104.050;2023-11-21T04:37:25;232.00;;;101.90;;
17858;SDS011;35426;30.698;104.050;2023-11-21T04:39:59;242.90;;;104.37;;
17858;SDS011;35426;30.698;104.050;2023-11-21T04:42:38;236.20;;;104.77;;
17858;SDS011;35426;30.698;104.050;2023-11-21T04:45:13;248.33;;;106.70;;
17858;SDS011;35426;30.698;104.050;2023-11-21T04:47:49;250.23;;;108.93;;
17858;SDS011;35426;30.698;104.050;2023-11-21T04:50:23;253.67;;;106.77;;
17858;SDS011;35426;30.698;104.050;2023-11-21T04:52:59;245.00;;;104.47;;
17858;SDS011;35426;30.698;104.050;2023-11-21T04:55:34;251.73;;;105.83;;
17858;SDS011;35426;30.698;104.050;2023-11-21T04:58:12;246.93;;;103.67;;
17858;SDS011;35426;30.698;104.050;2023-11-21T05:00:47;241.10;;;100.03;;
17858;SDS011;35426;30.698;104.050;2023-11-21T05:03:21;232.93;;;101.97;;
17858;SDS011;35426;30.698;104.050;2023-11-21T05:05:55;239.63;;;102.30;;
17858;SDS011;35426;30.698;104.050;2023-11-21T05:08:30;224.33;;;97.57;;
17858;SDS011;35426;30.698;104.050;2023-11-21T05:11:05;221.53;;;98.50;;
17858;SDS011;35426;30.698;104.050;2023-11-21T05:13:42;233.17;;;99.67;;
17858;SDS011;35426;30.698;104.050;2023-11-21T05:16:16;236.07;;;98.03;;
17858;SDS011;35426;30.698;104.050;2023-11-21T05:18:52;231.67;;;101.63;;
17858;SDS011;35426;30.698;104.050;2023-11-21T05:21:31;233.80;;;100.00;;
17858;SDS011;35426;30.698;104.050;2023-11-21T05:24:06;229.03;;;98.27;;
17858;SDS011;35426;30.698;104.050;2023-11-21T05:26:40;230.13;;;94.47;;
17858;SDS011;35426;30.698;104.050;2023-11-21T05:29:16;230.27;;;97.50;;
17858;SDS011;35426;30.698;104.050;2023-11-21T05:31:51;226.40;;;94.33;;
17858;SDS011;35426;30.698;104.050;2023-11-21T05:34:26;215.57;;;93.27;;
17858;SDS011;35426;30.698;104.050;2023-11-21T05:37:00;211.00;;;91.77;;
17858;SDS011;35426;30.698;104.050;2023-11-21T05:39:34;211.47;;;91.20;;
17858;SDS011;35426;30.698;104.050;2023-11-21T05:42:08;201.50;;;90.73;;
17858;SDS011;35426;30.698;104.050;2023-11-21T05:44:44;213.60;;;90.37;;
17858;SDS011;35426;30.698;104.050;2023-11-21T05:47:18;207.10;;;90.20;;
17858;SDS011;35426;30.698;104.050;2023-11-21T05:49:52;214.33;;;92.10;;
17858;SDS011;35426;30.698;104.050;2023-11-21T05:52:27;210.73;;;91.70;;
17858;SDS011;35426;30.698;104.050;2023-11-21T05:55:02;225.60;;;95.23;;
17858;SDS011;35426;30.698;104.050;2023-11-21T05:57:37;228.37;;;97.47;;
17858;SDS011;35426;30.698;104.050;2023-11-21T06:00:15;235.83;;;98.67;;
17858;SDS011;35426;30.698;104.050;2023-11-21T06:02:52;222.77;;;96.93;;
17858;SDS011;35426;30.698;104.050;2023-11-21T06:05:26;227.33;;;98.57;;
17858;SDS011;35426;30.698;104.050;2023-11-21T06:08:02;223.90;;;98.87;;
17858;SDS011;35426;30.698;104.050;2023-11-21T06:10:37;231.53;;;96.10;;
17858;SDS011;35426;30.698;104.050;2023-11-21T06:13:11;229.53;;;102.17;;
17858;SDS011;35426;30.698;104.050;2023-11-21T06:15:48;235.90;;;100.57;;
17858;SDS011;35426;30.698;104.050;2023-11-21T06:18:22;210.90;;;90.37;;
17858;SDS011;35426;30.698;104.050;2023-11-21T06:20:56;213.37;;;91.30;;
17858;SDS011;35426;30.698;104.050;2023-11-21T06:23:30;226.57;;;92.83;;
17858;SDS011;35426;30.698;104.050;2023-11-21T06:26:05;213.03;;;91.93;;
17858;SDS011;35426;30.698;104.050;2023-11-21T06:28:38;220.07;;;92.93;;
17858;SDS011;35426;30.698;104.050;2023-11-21T06:31:15;227.10;;;95.23;;
17858;SDS011;35426;30.698;104.050;2023-11-21T06:33:49;235.80;;;96.77;;
17858;SDS011;35426;30.698;104.050;2023-11-21T06:36:24;215.23;;;97.33;;
17858;SDS011;35426;30.698;104.050;2023-11-21T06:38:58;228.93;;;98.30;;
17858;SDS011;35426;30.698;104.050;2023-11-21T06:41:35;221.43;;;97.67;;
17858;SDS011;35426;30.698;104.050;2023-11-21T06:44:09;239.37;;;97.93;;
17858;SDS011;35426;30.698;104.050;2023-11-21T06:46:46;233.13;;;95.07;;
17858;SDS011;35426;30.698;104.050;2023-11-21T06:49:21;218.37;;;95.07;;
17858;SDS011;35426;30.698;104.050;2023-11-21T06:51:55;217.73;;;90.57;;
17858;SDS011;35426;30.698;104.050;2023-11-21T06:54:30;230.70;;;96.67;;
17858;SDS011;35426;30.698;104.050;2023-11-21T06:57:04;234.60;;;97.10;;
17858;SDS011;35426;30.698;104.050;2023-11-21T06:59:38;238.97;;;97.20;;
17858;SDS011;35426;30.698;104.050;2023-11-21T07:02:14;239.17;;;100.13;;
17858;SDS011;35426;30.698;104.050;2023-11-21T07:04:48;237.60;;;101.77;;
17858;SDS011;35426;30.698;104.050;2023-11-21T07:07:22;226.73;;;100.83;;
17858;SDS011;35426;30.698;104.050;2023-11-21T07:09:56;237.03;;;99.67;;
17858;SDS011;35426;30.698;104.050;2023-11-21T07:12:32;247.73;;;99.93;;
17858;SDS011;35426;30.698;104.050;2023-11-21T07:15:07;240.57;;;100.93;;
17858;SDS011;35426;30.698;104.050;2023-11-21T07:17:43;238.30;;;99.87;;
17858;SDS011;35426;30.698;104.050;2023-11-21T07:20:19;231.17;;;100.33;;
17858;SDS011;35426;30.698;104.050;2023-11-21T07:22:53;229.63;;;100.20;;
17858;SDS011;35426;30.698;104.050;2023-11-21T07:25:27;228.40;;;98.73;;
17858;SDS011;35426;30.698;104.050;2023-11-21T07:28:01;232.77;;;98.53;;
17858;SDS011;35426;30.698;104.050;2023-11-21T07:30:35;228.47;;;96.93;;
17858;SDS011;35426;30.698;104.050;2023-11-21T07:33:11;222.43;;;96.27;;
17858;SDS011;35426;30.698;104.050;2023-11-21T07:35:46;222.03;;;94.67;;
17858;SDS011;35426;30.698;104.050;2023-11-21T07:38:20;227.77;;;97.90;;
17858;SDS011;35426;30.698;104.050;2023-11-21T07:40:56;236.40;;;96.40;;
17858;SDS011;35426;30.698;104.050;2023-11-21T07:43:30;226.93;;;97.70;;
17858;SDS011;35426;30.698;104.050;2023-11-21T07:46:04;226.30;;;95.93;;
17858;SDS011;35426;30.698;104.050;2023-11-21T07:48:40;228.03;;;99.07;;
17858;SDS011;35426;30.698;104.050;2023-11-21T07:51:16;228.90;;;95.50;;
17858;SDS011;35426;30.698;104.050;2023-11-21T07:53:49;229.93;;;97.00;;
17858;SDS011;35426;30.698;104.050;2023-11-21T07:56:23;228.53;;;95.80;;
17858;SDS011;35426;30.698;104.050;2023-11-21T07:58:57;227.13;;;95.70;;
17858;SDS011;35426;30.698;104.050;2023-11-21T08:01:30;224.17;;;96.37;;
17858;SDS011;35426;30.698;104.050;2023-11-21T08:04:07;220.87;;;95.40;;
17858;SDS011;35426;30.698;104.050;2023-11-21T08:06:42;247.53;;;99.00;;
17858;SDS011;35426;30.698;104.050;2023-11-21T08:09:16;252.60;;;102.20;;
17858;SDS011;35426;30.698;104.050;2023-11-21T08:11:54;250.33;;;101.57;;
17858;SDS011;35426;30.698;104.050;2023-11-21T08:14:30;231.93;;;100.27;;
17858;SDS011;35426;30.698;104.050;2023-11-21T08:17:04;232.90;;;97.30;;
17858;SDS011;35426;30.698;104.050;2023-11-21T08:19:45;244.03;;;100.47;;
17858;SDS011;35426;30.698;104.050;2023-11-21T08:22:20;227.43;;;97.50;;
17858;SDS011;35426;30.698;104.050;2023-11-21T08:24:55;251.13;;;104.00;;
17858;SDS011;35426;30.698;104.050;2023-11-21T08:27:28;234.57;;;103.00;;
17858;SDS011;35426;30.698;104.050;2023-11-21T08:30:02;262.57;;;106.70;;
17858;SDS011;35426;30.698;104.050;2023-11-21T08:32:37;248.07;;;104.07;;
17858;SDS011;35426;30.698;104.050;2023-11-21T08:35:14;253.10;;;105.97;;
17858;SDS011;35426;30.698;104.050;2023-11-21T08:37:49;259.70;;;106.53;;
17858;SDS011;35426;30.698;104.050;2023-11-21T08:40:24;252.73;;;105.27;;
17858;SDS011;35426;30.698;104.050;2023-11-21T08:42:59;236.47;;;100.33;;
17858;SDS011;35426;30.698;104.050;2023-11-21T08:45:34;250.67;;;103.40;;
17858;SDS011;35426;30.698;104.050;2023-11-21T08:48:08;255.70;;;103.17;;
17858;SDS011;35426;30.698;104.050;2023-11-21T08:50:44;238.83;;;102.27;;
17858;SDS011;35426;30.698;104.050;2023-11-21T08:53:18;239.10;;;99.33;;
17858;SDS011;35426;30.698;104.050;2023-11-21T08:55:52;253.87;;;103.50;;
17858;SDS011;35426;30.698;104.050;2023-11-21T08:58:27;249.03;;;103.73;;
17858;SDS011;35426;30.698;104.050;2023-11-21T09:01:01;241.40;;;101.70;;
17858;SDS011;35426;30.698;104.050;2023-11-21T09:03:36;246.47;;;103.93;;
17858;SDS011;35426;30.698;104.050;2023-11-21T09:06:14;250.87;;;105.47;;
17858;SDS011;35426;30.698;104.050;2023-11-21T09:08:47;252.10;;;108.33;;
17858;SDS011;35426;30.698;104.050;2023-11-21T09:11:23;258.83;;;109.60;;
17858;SDS011;35426;30.698;104.050;2023-11-21T09:14:03;263.90;;;110.90;;
17858;SDS011;35426;30.698;104.050;2023-11-21T09:16:38;259.17;;;108.67;;
17858;SDS011;35426;30.698;104.050;2023-11-21T09:19:13;264.23;;;111.10;;
17858;SDS011;35426;30.698;104.050;2023-11-21T09:21:49;255.70;;;107.43;;
17858;SDS011;35426;30.698;104.050;2023-11-21T09:24:23;239.07;;;98.87;;
17858;SDS011;35426;30.698;104.050;2023-11-21T09:27:00;235.70;;;98.97;;
17858;SDS011;35426;30.698;104.050;2023-11-21T09:29:35;229.47;;;97.23;;
17858;SDS011;35426;30.698;104.050;2023-11-21T09:32:10;233.73;;;100.83;;
17858;SDS011;35426;30.698;104.050;2023-11-21T09:34:48;246.83;;;97.17;;
17858;SDS011;35426;30.698;104.050;2023-11-21T09:37:27;231.33;;;91.60;;
17858;SDS011;35426;30.698;104.050;2023-11-21T09:40:02;225.67;;;95.90;;
17858;SDS011;35426;30.698;104.050;2023-11-21T09:42:43;223.40;;;94.13;;
17858;SDS011;35426;30.698;104.050;2023-11-21T09:45:28;238.73;;;98.30;;
17858;SDS011;35426;30.698;104.050;2023-11-21T09:48:06;229.20;;;98.57;;
17858;SDS011;35426;30.698;104.050;2023-11-21T09:50:43;241.50;;;98.33;;
17858;SDS011;35426;30.698;104.050;2023-11-21T09:53:22;234.07;;;98.73;;
17858;SDS011;35426;30.698;104.050;2023-11-21T09:55:59;252.90;;;100.27;;
17858;SDS011;35426;30.698;104.050;2023-11-21T09:58:34;232.80;;;99.17;;
17858;SDS011;35426;30.698;104.050;2023-11-21T10:01:10;250.97;;;99.63;;
17858;SDS011;35426;30.698;104.050;2023-11-21T10:03:45;254.00;;;100.67;;
17858;SDS011;35426;30.698;104.050;2023-11-21T10:06:20;250.07;;;101.40;;
17858;SDS011;35426;30.698;104.050;2023-11-21T10:08:57;233.23;;;99.30;;
17858;SDS011;35426;30.698;104.050;2023-11-21T10:11:32;245.40;;;106.50;;
17858;SDS011;35426;30.698;104.050;2023-11-21T10:14:08;245.70;;;101.93;;
17858;SDS011;35426;30.698;104.050;2023-11-21T10:16:46;252.13;;;103.27;;
17858;SDS011;35426;30.698;104.050;2023-11-21T10:19:21;257.40;;;105.20;;
17858;SDS011;35426;30.698;104.050;2023-11-21T10:21:56;254.57;;;105.87;;
17858;SDS011;35426;30.698;104.050;2023-11-21T10:24:35;266.13;;;107.73;;
17858;SDS011;35426;30.698;104.050;2023-11-21T10:27:20;249.60;;;104.47;;
17858;SDS011;35426;30.698;104.050;2023-11-21T10:29:55;255.33;;;106.13;;
17858;SDS011;35426;30.698;104.050;2023-11-21T10:32:30;267.20;;;107.67;;
17858;SDS011;35426;30.698;104.050;2023-11-21T10:35:05;282.43;;;109.10;;
17858;SDS011;35426;30.698;104.050;2023-11-21T10:37:39;284.90;;;113.63;;
17858;SDS011;35426;30.698;104.050;2023-11-21T10:40:16;274.70;;;112.07;;
17858;SDS011;35426;30.698;104.050;2023-11-21T10:42:50;280.47;;;113.33;;
17858;SDS011;35426;30.698;104.050;2023-11-21T10:45:27;278.73;;;112.67;;
17858;SDS011;35426;30.698;104.050;2023-11-21T10:48:04;282.30;;;110.07;;
17858;SDS011;35426;30.698;104.050;2023-11-21T10:50:40;274.97;;;110.50;;
17858;SDS011;35426;30.698;104.050;2023-11-21T10:53:13;285.80;;;112.83;;
17858;SDS011;35426;30.698;104.050;2023-11-21T10:55:50;280.10;;;112.33;;
17858;SDS011;35426;30.698;104.050;2023-11-21T10:58:38;286.37;;;113.80;;
17858;SDS011;35426;30.698;104.050;2023-11-21T11:01:13;281.77;;;112.93;;
17858;SDS011;35426;30.698;104.050;2023-11-21T11:03:54;279.93;;;110.03;;
17858;SDS011;35426;30.698;104.050;2023-11-21T11:06:28;255.13;;;108.20;;
17858;SDS011;35426;30.698;104.050;2023-11-21T11:09:03;289.47;;;113.20;;
17858;SDS011;35426;30.698;104.050;2023-11-21T11:11:42;270.57;;;105.47;;
17858;SDS011;35426;30.698;104.050;2023-11-21T11:14:16;254.80;;;104.30;;
17858;SDS011;35426;30.698;104.050;2023-11-21T11:16:54;272.30;;;107.80;;
17858;SDS011;35426;30.698;104.050;2023-11-21T11:19:30;265.53;;;108.10;;
17858;SDS011;35426;30.698;104.050;2023-11-21T11:22:07;262.30;;;107.97;;
17858;SDS011;35426;30.698;104.050;2023-11-21T11:25:03;268.97;;;108.27;;
17858;SDS011;35426;30.698;104.050;2023-11-21T11:27:54;266.53;;;104.73;;
17858;SDS011;35426;30.698;104.050;2023-11-21T11:30:44;265.27;;;107.20;;
17858;SDS011;35426;30.698;104.050;2023-11-21T11:33:31;269.50;;;109.07;;
17858;SDS011;35426;30.698;104.050;2023-11-21T11:36:15;274.97;;;107.70;;
17858;SDS011;35426;30.698;104.050;2023-11-21T11:38:55;272.27;;;108.77;;
17858;SDS011;35426;30.698;104.050;2023-11-21T11:41:32;274.30;;;106.50;;
17858;SDS011;35426;30.698;104.050;2023-11-21T11:44:09;264.53;;;105.93;;
17858;SDS011;35426;30.698;104.050;2023-11-21T11:47:25;275.87;;;109.70;;
17858;SDS011;35426;30.698;104.050;2023-11-21T11:50:03;266.07;;;105.03;;
17858;SDS011;35426;30.698;104.050;2023-11-21T11:52:43;253.67;;;104.27;;
17858;SDS011;35426;30.698;104.050;2023-11-21T11:55:19;266.13;;;104.17;;
17858;SDS011;35426;30.698;104.050;2023-11-21T11:57:53;262.67;;;104.17;;
17858;SDS011;35426;30.698;104.050;2023-11-21T12:00:35;262.17;;;103.10;;
17858;SDS011;35426;30.698;104.050;2023-11-21T12:03:11;257.20;;;104.27;;
17858;SDS011;35426;30.698;104.050;2023-11-21T12:05:46;265.47;;;105.37;;
17858;SDS011;35426;30.698;104.050;2023-11-21T12:08:28;260.10;;;104.17;;
17858;SDS011;35426;30.698;104.050;2023-11-21T12:11:03;257.00;;;103.93;;
17858;SDS011;35426;30.698;104.050;2023-11-21T12:13:37;265.43;;;104.83;;
17858;SDS011;35426;30.698;104.050;2023-11-21T12:16:14;251.50;;;104.00;;
17858;SDS011;35426;30.698;104.050;2023-11-21T12:18:47;266.57;;;103.90;;
17858;SDS011;35426;30.698;104.050;2023-11-21T12:21:22;262.10;;;103.20;;
17858;SDS011;35426;30.698;104.050;2023-11-21T12:23:57;260.00;;;105.93;;
17858;SDS011;35426;30.698;104.050;2023-11-21T12:26:31;257.30;;;103.07;;
17858;SDS011;35426;30.698;104.050;2023-11-21T12:29:05;265.20;;;103.90;;
17858;SDS011;35426;30.698;104.050;2023-11-21T12:31:42;250.03;;;102.63;;
17858;SDS011;35426;30.698;104.050;2023-11-21T12:34:17;263.37;;;104.20;;
17858;SDS011;35426;30.698;104.050;2023-11-21T12:36:54;254.53;;;104.40;;
17858;SDS011;35426;30.698;104.050;2023-11-21T12:39:28;251.83;;;102.97;;
17858;SDS011;35426;30.698;104.050;2023-11-21T12:42:03;254.77;;;103.03;;
17858;SDS011;35426;30.698;104.050;2023-11-21T12:44:39;260.10;;;102.93;;
17858;SDS011;35426;30.698;104.050;2023-11-21T12:47:19;250.77;;;102.80;;
17858;SDS011;35426;30.698;104.050;2023-11-21T12:49:57;260.00;;;105.03;;
17858;SDS011;35426;30.698;104.050;2023-11-21T12:52:32;257.93;;;105.43;;
17858;SDS011;35426;30.698;104.050;2023-11-21T12:55:09;262.97;;;106.10;;
17858;SDS011;35426;30.698;104.050;2023-11-21T12:57:45;261.27;;;105.23;;
17858;SDS011;35426;30.698;104.050;2023-11-21T13:00:28;248.10;;;104.03;;
17858;SDS011;35426;30.698;104.050;2023-11-21T13:03:09;258.77;;;105.17;;
17858;SDS011;35426;30.698;104.050;2023-11-21T13:05:47;275.20;;;107.70;;
17858;SDS011;35426;30.698;104.050;2023-11-21T13:08:23;247.37;;;106.77;;
17858;SDS011;35426;30.698;104.050;2023-11-21T13:10:59;270.60;;;107.00;;
17858;SDS011;35426;30.698;104.050;2023-11-21T13:13:35;266.73;;;108.37;;
17858;SDS011;35426;30.698;104.050;2023-11-21T13:16:13;258.23;;;106.00;;
17858;SDS011;35426;30.698;104.050;2023-11-21T13:18:53;260.53;;;105.97;;
17858;SDS011;35426;30.698;104.050;2023-11-21T13:21:27;262.50;;;107.23;;
17858;SDS011;35426;30.698;104.050;2023-11-21T13:24:02;248.03;;;102.90;;
17858;SDS011;35426;30.698;104.050;2023-11-21T13:26:37;261.57;;;107.37;;
17858;SDS011;35426;30.698;104.050;2023-11-21T13:29:11;251.83;;;104.00;;
17858;SDS011;35426;30.698;104.050;2023-11-21T13:31:46;256.93;;;105.23;;
17858;SDS011;35426;30.698;104.050;2023-11-21T13:34:22;259.17;;;104.80;;
17858;SDS011;35426;30.698;104.050;2023-11-21T13:37:01;284.47;;;110.00;;
17858;SDS011;35426;30.698;104.050;2023-11-21T13:39:37;272.37;;;111.10;;
17858;SDS011;35426;30.698;104.050;2023-11-21T13:42:14;267.57;;;108.67;;
17858;SDS011;35426;30.698;104.050;2023-11-21T13:44:49;254.13;;;104.73;;
17858;SDS011;35426;30.698;104.050;2023-11-21T13:47:28;259.77;;;105.37;;
17858;SDS011;35426;30.698;104.050;2023-11-21T13:50:07;281.33;;;108.43;;
17858;SDS011;35426;30.698;104.050;2023-11-21T13:52:47;262.20;;;106.93;;
17858;SDS011;35426;30.698;104.050;2023-11-21T13:55:23;281.43;;;108.63;;
17858;SDS011;35426;30.698;104.050;2023-11-21T13:57:56;259.77;;;107.30;;
17858;SDS011;35426;30.698;104.050;2023-11-21T14:00:32;269.03;;;108.23;;
17858;SDS011;35426;30.698;104.050;2023-11-21T14:03:14;278.73;;;107.97;;
17858;SDS011;35426;30.698;104.050;2023-11-21T14:05:53;275.73;;;107.63;;
17858;SDS011;35426;30.698;104.050;2023-11-21T14:08:29;278.13;;;111.73;;
17858;SDS011;35426;30.698;104.050;2023-11-21T14:11:04;268.90;;;108.17;;
17858;SDS011;35426;30.698;104.050;2023-11-21T14:13:41;265.40;;;109.10;;
17858;SDS011;35426;30.698;104.050;2023-11-21T14:16:17;270.33;;;109.17;;
17858;SDS011;35426;30.698;104.050;2023-11-21T14:18:52;263.93;;;108.73;;
17858;SDS011;35426;30.698;104.050;2023-11-21T14:21:34;289.60;;;107.97;;
17858;SDS011;35426;30.698;104.050;2023-11-21T14:24:08;272.43;;;111.00;;